createdAt,value
2017-12-01T00:02:10.179Z,34.20
2017-12-01T00:04:37.695Z,37.93
2017-12-01T00:07:05.179Z,45.33
2017-12-01T00:09:32.681Z,26.87
2017-12-01T00:12:00.237Z,73.50
2017-12-01T00:14:27.791Z,40.97
2017-12-01T00:16:55.376Z,36.03
2017-12-01T00:19:22.895Z,34.93
2017-12-01T00:21:50.405Z,36.77
2017-12-01T00:24:17.939Z,35.80
2017-12-01T00:26:45.513Z,43.67
2017-12-01T00:29:13.009Z,54.73
2017-12-01T00:31:40.521Z,41.00
2017-12-01T00:34:08.104Z,40.43
2017-12-01T00:36:35.590Z,38.20
2017-12-01T00:39:03.116Z,40.40
2017-12-01T00:41:30.608Z,43.60
2017-12-01T00:43:58.092Z,37.93
2017-12-01T00:46:25.628Z,46.23
2017-12-01T00:48:53.124Z,43.53
2017-12-01T00:51:20.617Z,44.70
2017-12-01T00:53:48.166Z,41.70
2017-12-01T00:56:15.667Z,43.70
2017-12-01T00:58:43.160Z,46.50
2017-12-01T01:01:10.679Z,51.37
2017-12-01T01:03:38.170Z,43.10
2017-12-01T01:06:05.684Z,50.77
2017-12-01T01:08:33.175Z,43.83
2017-12-01T01:11:00.709Z,41.73
2017-12-01T01:13:28.199Z,43.50
2017-12-01T01:15:55.710Z,45.00
2017-12-01T01:18:23.240Z,46.63
2017-12-01T01:20:50.731Z,49.40
2017-12-01T01:23:18.222Z,47.90
2017-12-01T01:25:45.743Z,47.37
2017-12-01T01:28:13.272Z,45.97
2017-12-01T01:30:40.764Z,51.20
2017-12-01T01:33:08.301Z,46.03
2017-12-01T01:35:35.791Z,49.13
2017-12-01T01:38:03.287Z,49.07
2017-12-01T01:40:30.820Z,52.43
2017-12-01T01:42:58.318Z,47.20
2017-12-01T01:45:25.882Z,45.90
2017-12-01T01:47:53.426Z,48.37
2017-12-01T01:50:20.918Z,56.17
2017-12-01T01:52:48.411Z,50.43
2017-12-01T01:55:15.935Z,46.80
2017-12-01T01:57:43.421Z,57.47
2017-12-01T02:00:10.921Z,51.60
2017-12-01T02:02:38.450Z,56.70
2017-12-01T02:05:06.014Z,48.53
2017-12-01T02:07:33.501Z,52.20
2017-12-01T02:10:01.035Z,54.73
2017-12-01T02:12:28.538Z,51.13
2017-12-01T02:14:56.039Z,57.17
2017-12-01T02:17:23.561Z,50.73
2017-12-01T02:19:51.056Z,55.50
2017-12-01T02:22:18.556Z,53.50
2017-12-01T02:24:46.072Z,51.03
2017-12-01T02:27:13.670Z,54.10
2017-12-01T02:29:41.163Z,62.60
2017-12-01T02:32:08.704Z,56.77
2017-12-01T02:34:36.242Z,49.13
2017-12-01T02:37:03.740Z,62.30
2017-12-01T02:39:31.268Z,57.23
2017-12-01T02:41:58.751Z,53.13
2017-12-01T02:44:26.275Z,50.07
2017-12-01T02:46:54.672Z,54.53
2017-12-01T02:49:22.166Z,53.53
2017-12-01T02:51:49.670Z,49.77
2017-12-01T02:54:17.328Z,54.53
2017-12-01T02:56:44.825Z,55.23
2017-12-01T02:59:12.347Z,51.10
2017-12-01T03:01:39.888Z,48.70
2017-12-01T03:04:07.376Z,55.70
2017-12-01T03:06:34.883Z,55.30
2017-12-01T03:09:02.420Z,55.77
2017-12-01T03:11:29.920Z,52.60
2017-12-01T03:13:57.415Z,55.20
2017-12-01T03:16:24.949Z,50.80
2017-12-01T03:18:52.443Z,52.47
2017-12-01T03:21:19.941Z,59.63
2017-12-01T03:23:47.476Z,50.10
2017-12-01T03:26:14.972Z,58.57
2017-12-01T03:28:42.463Z,54.70
2017-12-01T03:31:09.988Z,49.10
2017-12-01T03:33:37.578Z,51.20
2017-12-01T03:36:05.065Z,48.87
2017-12-01T03:38:32.675Z,51.63
2017-12-01T03:41:00.167Z,54.40
2017-12-01T03:43:27.682Z,48.73
2017-12-01T03:45:55.218Z,50.80
2017-12-01T03:48:22.711Z,46.83
2017-12-01T03:50:50.200Z,53.87
2017-12-01T03:53:17.745Z,59.43
2017-12-01T03:55:45.236Z,47.60
2017-12-01T03:58:12.732Z,49.73
2017-12-01T04:00:40.281Z,46.97
2017-12-01T04:03:07.782Z,50.07
2017-12-01T04:05:35.268Z,46.63
2017-12-01T04:08:02.806Z,54.50
2017-12-01T04:10:30.287Z,50.33
2017-12-01T04:12:57.771Z,59.70
2017-12-01T04:15:25.399Z,51.20
2017-12-01T04:17:52.884Z,49.80
2017-12-01T04:20:20.385Z,47.57
2017-12-01T04:22:47.930Z,53.03
2017-12-01T04:25:15.429Z,56.13
2017-12-01T04:27:42.919Z,51.70
2017-12-01T04:30:10.459Z,48.03
2017-12-01T04:32:37.951Z,57.03
2017-12-01T04:35:05.468Z,56.57
2017-12-01T04:37:33.005Z,61.40
2017-12-01T04:40:00.496Z,60.13
2017-12-01T04:42:28.006Z,58.30
2017-12-01T04:44:55.550Z,60.67
2017-12-01T04:47:23.041Z,57.87
2017-12-01T04:49:50.529Z,60.70
2017-12-01T04:52:18.064Z,70.53
2017-12-01T04:54:45.566Z,64.33
2017-12-01T04:57:13.071Z,63.17
2017-12-01T04:59:40.587Z,65.70
2017-12-01T05:02:08.082Z,66.30
2017-12-01T05:04:35.572Z,66.93
2017-12-01T05:07:03.084Z,64.20
2017-12-01T05:09:30.604Z,59.17
2017-12-01T05:11:58.195Z,67.90
2017-12-01T05:14:25.683Z,66.50
2017-12-01T05:16:53.215Z,65.70
2017-12-01T05:19:20.756Z,74.70
2017-12-01T05:21:48.350Z,71.63
2017-12-01T05:24:15.902Z,66.37
2017-12-01T05:26:43.443Z,80.10
2017-12-01T05:29:10.936Z,77.00
2017-12-01T05:31:38.430Z,66.70
2017-12-01T05:34:05.957Z,61.93
2017-12-01T05:36:33.489Z,80.77
2017-12-01T05:39:00.980Z,59.20
2017-12-01T05:41:28.512Z,78.33
2017-12-01T05:43:56.012Z,62.37
2017-12-01T05:46:23.508Z,61.00
2017-12-01T05:48:51.035Z,58.53
2017-12-01T05:51:18.545Z,60.77
2017-12-01T05:53:46.040Z,66.30
2017-12-01T05:56:13.662Z,68.37
2017-12-01T05:58:41.159Z,63.13
2017-12-01T06:01:08.651Z,64.80
2017-12-01T06:03:36.190Z,66.73
2017-12-01T06:06:03.692Z,78.40
2017-12-01T06:08:31.233Z,70.83
2017-12-01T06:10:58.776Z,70.83
2017-12-01T06:13:26.266Z,71.20
2017-12-01T06:15:53.755Z,73.63
2017-12-01T06:18:21.375Z,62.70
2017-12-01T06:20:48.940Z,63.90
2017-12-01T06:23:16.434Z,64.63
2017-12-01T06:25:44.051Z,65.43
2017-12-01T06:28:11.687Z,58.07
2017-12-01T06:30:39.179Z,58.77
2017-12-01T06:33:06.806Z,69.97
2017-12-01T06:35:34.290Z,61.93
2017-12-01T06:38:01.827Z,67.10
2017-12-01T06:40:29.625Z,71.07
2017-12-01T06:42:57.171Z,66.07
2017-12-01T06:45:24.755Z,75.80
2017-12-01T06:47:52.284Z,83.50
2017-12-01T06:50:19.771Z,77.83
2017-12-01T06:52:47.256Z,73.00
2017-12-01T06:55:14.784Z,71.43
2017-12-01T06:57:42.275Z,71.50
2017-12-01T07:00:09.770Z,65.07
2017-12-01T07:02:37.456Z,73.00
2017-12-01T07:05:04.950Z,67.83
2017-12-01T07:07:32.446Z,71.57
2017-12-01T07:12:50.960Z,76.67
2017-12-01T07:15:18.435Z,75.77
2017-12-01T07:17:45.930Z,81.10
2017-12-01T07:20:13.443Z,76.40
2017-12-01T07:22:40.927Z,84.90
2017-12-01T07:25:08.422Z,74.57
2017-12-01T07:27:35.946Z,80.63
2017-12-01T07:30:03.487Z,68.87
2017-12-01T07:32:30.969Z,69.60
2017-12-01T07:34:58.450Z,71.80
2017-12-01T07:37:25.984Z,76.23
2017-12-01T07:39:53.491Z,73.40
2017-12-01T07:42:20.976Z,79.90
2017-12-01T07:47:53.851Z,71.53
2017-12-01T07:50:21.491Z,66.40
2017-12-01T07:52:49.002Z,66.80
2017-12-01T07:55:16.496Z,62.97
2017-12-01T07:57:44.028Z,71.73
2017-12-01T08:00:11.532Z,70.93
2017-12-01T08:02:39.020Z,71.43
2017-12-01T08:05:06.532Z,62.43
2017-12-01T08:07:34.007Z,59.77
2017-12-01T08:10:01.542Z,59.83
2017-12-01T08:12:29.060Z,73.80
2017-12-01T08:14:56.553Z,60.23
2017-12-01T08:17:29.813Z,67.83
2017-12-01T08:19:57.298Z,63.00
2017-12-01T08:22:36.800Z,57.23
2017-12-01T08:25:16.144Z,72.97
2017-12-01T08:27:43.669Z,64.17
2017-12-01T08:30:11.157Z,67.07
2017-12-01T08:32:38.643Z,66.47
2017-12-01T08:35:06.155Z,65.13
2017-12-01T08:37:33.652Z,68.43
2017-12-01T08:40:01.184Z,57.47
2017-12-01T08:42:28.670Z,58.30
2017-12-01T08:44:56.159Z,61.13
2017-12-01T08:47:23.707Z,59.37
2017-12-01T08:49:51.286Z,70.80
2017-12-01T08:52:18.779Z,64.87
2017-12-01T08:54:46.313Z,60.60
2017-12-01T08:57:13.848Z,56.97
2017-12-01T08:59:41.514Z,57.53
2017-12-01T09:02:09.057Z,63.90
2017-12-01T09:04:36.548Z,65.77
2017-12-01T09:07:04.040Z,59.27
2017-12-01T09:09:31.567Z,58.13
2017-12-01T09:11:59.104Z,63.77
2017-12-01T09:14:26.598Z,74.37
2017-12-01T09:16:54.121Z,65.90
2017-12-01T09:19:21.676Z,59.00
2017-12-01T09:21:49.177Z,68.93
2017-12-01T09:24:16.702Z,64.33
2017-12-01T09:26:44.196Z,52.20
2017-12-01T09:29:11.685Z,51.67
2017-12-01T09:31:39.215Z,54.43
2017-12-01T09:34:06.703Z,59.10
2017-12-01T09:36:34.195Z,60.13
2017-12-01T09:39:01.717Z,55.03
2017-12-01T09:41:29.225Z,51.13
2017-12-01T09:43:56.724Z,49.83
2017-12-01T09:46:24.252Z,59.83
2017-12-01T09:48:51.748Z,59.63
2017-12-01T09:51:19.244Z,55.53
2017-12-01T09:53:46.827Z,48.77
2017-12-01T09:56:14.356Z,60.97
2017-12-01T09:58:41.856Z,54.73
2017-12-01T10:01:09.383Z,50.30
2017-12-01T10:03:36.880Z,58.23
2017-12-01T10:06:04.388Z,54.63
2017-12-01T10:08:31.961Z,64.73
2017-12-01T10:10:59.451Z,49.90
2017-12-01T10:13:26.983Z,52.83
2017-12-01T10:15:54.516Z,48.57
2017-12-01T10:18:22.079Z,55.77
2017-12-01T10:20:49.570Z,54.40
2017-12-01T10:23:17.107Z,56.07
2017-12-01T10:25:44.601Z,55.43
2017-12-01T10:28:12.103Z,58.90
2017-12-01T10:30:39.623Z,55.67
2017-12-01T10:33:07.150Z,49.77
2017-12-01T10:35:34.640Z,43.97
2017-12-01T10:38:02.154Z,63.60
2017-12-01T10:40:29.708Z,52.57
2017-12-01T10:42:57.204Z,46.30
2017-12-01T10:45:24.719Z,43.03
2017-12-01T10:47:52.286Z,44.00
2017-12-01T10:50:19.787Z,48.60
2017-12-01T10:52:47.271Z,46.97
2017-12-01T10:55:14.791Z,53.63
2017-12-01T10:57:42.279Z,51.77
2017-12-01T11:00:09.772Z,53.33
2017-12-01T11:02:37.287Z,53.07
2017-12-01T11:05:04.778Z,46.00
2017-12-01T11:07:32.274Z,46.23
2017-12-01T11:09:59.822Z,44.27
2017-12-01T11:12:27.315Z,45.17
2017-12-01T11:14:54.818Z,42.73
2017-12-01T11:17:22.356Z,51.60
2017-12-01T11:19:49.844Z,45.90
2017-12-01T11:22:17.332Z,42.70
2017-12-01T11:24:44.887Z,47.00
2017-12-01T11:27:12.383Z,45.30
2017-12-01T11:29:39.893Z,42.63
2017-12-01T11:32:07.413Z,45.47
2017-12-01T11:34:34.906Z,37.73
2017-12-01T11:37:02.442Z,39.20
2017-12-01T11:39:29.935Z,42.00
2017-12-01T11:41:57.440Z,42.57
2017-12-01T11:44:25.019Z,42.10
2017-12-01T11:46:52.557Z,49.07
2017-12-01T11:49:20.053Z,51.80
2017-12-01T11:51:47.543Z,46.60
2017-12-01T11:54:15.076Z,48.87
2017-12-01T11:56:42.571Z,45.17
2017-12-01T11:59:10.056Z,51.10
2017-12-01T12:01:37.636Z,46.63
2017-12-01T12:04:05.096Z,87.07
2017-12-01T12:06:32.592Z,85.07
2017-12-01T12:09:00.107Z,51.10
2017-12-01T12:11:27.644Z,50.13
2017-12-01T12:13:55.219Z,48.60
2017-12-01T12:16:22.711Z,47.73
2017-12-01T12:18:50.239Z,47.00
2017-12-01T12:21:17.732Z,50.47
2017-12-01T12:23:45.247Z,51.60
2017-12-01T12:26:12.809Z,54.60
2017-12-01T12:28:40.372Z,43.57
2017-12-01T12:31:07.868Z,63.93
2017-12-01T12:33:35.488Z,51.33
2017-12-01T12:36:02.980Z,55.73
2017-12-01T12:38:30.476Z,45.30
2017-12-01T12:40:58.059Z,53.57
2017-12-01T12:43:25.554Z,48.13
2017-12-01T12:45:53.043Z,37.03
2017-12-01T12:48:20.575Z,44.10
2017-12-01T12:50:48.100Z,37.93
2017-12-01T12:53:15.603Z,47.33
2017-12-01T12:55:43.149Z,43.87
2017-12-01T12:58:10.651Z,37.43
2017-12-01T13:00:38.143Z,38.40
2017-12-01T13:03:05.667Z,39.10
2017-12-01T13:05:33.159Z,40.07
2017-12-01T13:08:00.658Z,46.93
2017-12-01T13:10:28.180Z,40.87
2017-12-01T13:12:55.663Z,39.87
2017-12-01T13:15:23.150Z,39.83
2017-12-01T13:17:50.692Z,41.80
2017-12-01T13:20:18.196Z,49.03
2017-12-01T13:22:45.688Z,42.57
2017-12-01T13:25:13.223Z,38.83
2017-12-01T13:27:40.712Z,42.67
2017-12-01T13:30:08.233Z,67.47
2017-12-01T13:32:35.739Z,42.27
2017-12-01T13:35:03.228Z,40.77
2017-12-01T13:37:30.748Z,42.37
2017-12-01T13:39:58.279Z,36.53
2017-12-01T13:42:25.771Z,34.70
2017-12-01T13:44:53.290Z,29.13
2017-12-01T13:47:20.813Z,33.90
2017-12-01T13:49:48.399Z,34.60
2017-12-01T13:52:15.916Z,33.80
2017-12-01T13:54:43.450Z,41.33
2017-12-01T13:59:44.700Z,39.43
2017-12-01T14:02:12.324Z,36.40
2017-12-01T14:04:39.811Z,35.03
2017-12-01T14:07:07.424Z,36.93
2017-12-01T14:09:34.925Z,40.17
2017-12-01T14:12:02.418Z,37.53
2017-12-01T14:14:29.948Z,51.13
2017-12-01T14:16:57.436Z,38.73
2017-12-01T14:19:24.920Z,39.30
2017-12-01T14:21:52.525Z,38.80
2017-12-01T14:24:20.020Z,32.87
2017-12-01T14:26:47.514Z,33.07
2017-12-01T14:29:15.098Z,34.93
2017-12-01T14:31:42.584Z,29.33
2017-12-01T14:34:10.138Z,30.20
2017-12-01T14:36:37.639Z,30.47
2017-12-01T14:39:05.215Z,35.67
2017-12-01T14:41:32.704Z,40.53
2017-12-01T14:44:00.246Z,29.43
2017-12-01T14:46:27.772Z,33.13
2017-12-01T14:48:55.263Z,32.57
2017-12-01T14:51:22.778Z,33.27
2017-12-01T14:53:50.275Z,32.53
2017-12-01T14:56:17.805Z,33.57
2017-12-01T14:58:45.293Z,35.43
2017-12-01T15:01:12.839Z,34.13
2017-12-01T15:03:40.405Z,37.83
2017-12-01T15:06:07.959Z,44.50
2017-12-01T15:08:35.504Z,42.43
2017-12-01T15:11:03.005Z,41.00
2017-12-01T15:13:30.508Z,31.37
2017-12-01T15:15:58.024Z,39.37
2017-12-01T15:18:25.575Z,35.87
2017-12-01T15:20:53.120Z,48.20
2017-12-01T15:23:20.611Z,50.07
2017-12-01T15:25:48.324Z,38.90
2017-12-01T15:28:15.891Z,50.17
2017-12-01T15:30:43.451Z,40.23
2017-12-01T15:33:10.980Z,41.87
2017-12-01T15:35:38.478Z,38.73
2017-12-01T15:38:05.968Z,53.27
2017-12-01T15:40:33.485Z,40.60
2017-12-01T15:43:01.010Z,41.80
2017-12-01T15:45:28.495Z,41.80
2017-12-01T15:47:56.275Z,44.13
2017-12-01T15:50:23.808Z,42.00
2017-12-01T15:52:51.287Z,35.00
2017-12-01T15:55:18.791Z,52.27
2017-12-01T15:57:46.307Z,40.13
2017-12-01T16:00:13.822Z,51.73
2017-12-01T16:02:41.316Z,43.87
2017-12-01T16:05:08.806Z,43.00
2017-12-01T16:07:36.339Z,42.80
2017-12-01T16:10:03.838Z,41.80
2017-12-01T16:12:31.328Z,45.60
2017-12-01T16:14:58.851Z,40.00
2017-12-01T16:17:26.365Z,42.17
2017-12-01T16:19:53.865Z,45.27
2017-12-01T16:22:21.497Z,45.37
2017-12-01T16:24:48.987Z,39.70
2017-12-01T16:27:16.483Z,52.53
2017-12-01T16:29:44.023Z,40.07
2017-12-01T16:32:11.513Z,43.30
2017-12-01T16:34:39.022Z,35.47
2017-12-01T16:37:06.567Z,44.60
2017-12-01T16:39:34.063Z,44.23
2017-12-01T16:42:01.627Z,42.73
2017-12-01T16:44:29.326Z,41.73
2017-12-01T16:46:56.821Z,44.00
2017-12-01T16:49:24.307Z,54.77
2017-12-01T16:51:51.831Z,39.67
2017-12-01T16:54:19.322Z,53.77
2017-12-01T16:56:46.805Z,41.37
2017-12-01T16:59:14.335Z,54.60
2017-12-01T17:01:41.821Z,50.63
2017-12-01T17:04:09.377Z,43.07
2017-12-01T17:06:36.915Z,48.33
2017-12-01T17:09:04.419Z,47.07
2017-12-01T17:11:31.911Z,50.83
2017-12-01T17:13:59.564Z,48.60
2017-12-01T17:16:27.046Z,45.20
2017-12-01T17:18:54.618Z,82.70
2017-12-01T17:21:22.112Z,47.07
2017-12-01T17:23:49.605Z,45.93
2017-12-01T17:26:17.209Z,46.03
2017-12-01T17:28:44.766Z,46.70
2017-12-01T17:31:12.262Z,54.63
2017-12-01T17:33:39.780Z,48.77
2017-12-01T17:36:07.278Z,50.67
2017-12-01T17:38:34.763Z,50.10
2017-12-01T17:41:03.039Z,51.17
2017-12-01T17:43:30.533Z,50.77
2017-12-01T17:45:58.107Z,52.23
2017-12-01T17:48:25.636Z,51.80
2017-12-01T17:50:53.122Z,44.80
2017-12-01T17:53:20.618Z,51.30
2017-12-01T17:55:48.160Z,52.27
2017-12-01T17:58:15.654Z,58.03
2017-12-01T18:00:43.148Z,54.33
2017-12-01T18:03:11.543Z,46.77
2017-12-01T18:05:39.054Z,67.10
2017-12-01T18:08:06.548Z,57.17
2017-12-01T18:10:34.104Z,49.33
2017-12-01T18:13:01.594Z,56.43
2017-12-01T18:15:29.083Z,49.03
2017-12-01T18:17:56.608Z,41.83
2017-12-01T18:20:24.192Z,49.70
2017-12-01T18:22:51.691Z,48.93
2017-12-01T18:25:19.236Z,48.77
2017-12-01T18:27:46.731Z,55.63
2017-12-01T18:30:14.232Z,47.93
2017-12-01T18:32:41.775Z,44.70
2017-12-01T18:35:09.254Z,44.93
2017-12-01T18:37:36.745Z,43.37
2017-12-01T18:40:04.257Z,48.97
2017-12-01T18:42:31.958Z,56.73
2017-12-01T18:44:59.510Z,46.10
2017-12-01T18:47:27.003Z,49.40
2017-12-01T18:49:54.541Z,49.30
2017-12-01T18:52:22.028Z,48.83
2017-12-01T18:54:49.524Z,56.30
2017-12-01T18:57:17.074Z,58.53
2017-12-01T18:59:44.583Z,52.70
2017-12-01T19:02:12.075Z,55.40
2017-12-01T19:04:39.590Z,61.53
2017-12-01T19:07:07.075Z,54.87
2017-12-01T19:09:34.568Z,54.97
2017-12-01T19:12:02.113Z,52.73
2017-12-01T19:14:29.601Z,52.93
2017-12-01T19:16:57.186Z,65.40
2017-12-01T19:19:24.701Z,59.27
2017-12-01T19:21:52.259Z,51.60
2017-12-01T19:24:19.854Z,60.03
2017-12-01T19:26:47.408Z,67.00
2017-12-01T19:29:14.964Z,58.93
2017-12-01T19:31:42.450Z,79.23
2017-12-01T19:34:09.940Z,52.80
2017-12-01T19:36:37.541Z,60.43
2017-12-01T19:39:05.102Z,63.30
2017-12-01T19:41:32.594Z,66.87
2017-12-01T19:44:00.128Z,57.20
2017-12-01T19:46:27.617Z,68.57
2017-12-01T19:48:55.154Z,65.13
2017-12-01T19:51:22.713Z,81.43
2017-12-01T19:53:50.253Z,68.50
2017-12-01T19:56:17.748Z,81.83
2017-12-01T19:58:45.280Z,78.40
2017-12-01T20:01:12.779Z,85.37
2017-12-01T20:03:40.265Z,60.87
2017-12-01T20:06:07.796Z,60.33
2017-12-01T20:08:35.286Z,69.40
2017-12-01T20:11:03.403Z,69.13
2017-12-01T20:13:30.958Z,65.93
2017-12-01T20:15:58.492Z,64.33
2017-12-01T20:18:25.984Z,68.80
2017-12-01T20:20:53.515Z,55.57
2017-12-01T20:23:21.044Z,70.17
2017-12-01T20:25:48.535Z,76.43
2017-12-01T20:28:16.041Z,63.30
2017-12-01T20:30:43.559Z,48.00
2017-12-01T20:33:11.117Z,50.93
2017-12-01T20:35:38.608Z,65.00
2017-12-01T20:38:06.139Z,65.10
2017-12-01T20:40:33.629Z,58.03
2017-12-01T20:43:01.144Z,73.10
2017-12-01T20:45:28.678Z,81.63
2017-12-01T20:47:56.175Z,74.93
2017-12-01T20:50:23.665Z,59.57
2017-12-01T20:52:51.258Z,91.00
2017-12-01T20:55:18.759Z,63.13
2017-12-01T20:57:46.304Z,68.07
2017-12-01T21:00:13.935Z,71.93
2017-12-01T21:02:41.510Z,58.93
2017-12-01T21:05:08.999Z,51.47
2017-12-01T21:07:36.533Z,67.90
2017-12-01T21:10:04.032Z,54.03
2017-12-01T21:12:31.542Z,108.17
2017-12-01T21:14:59.095Z,60.77
2017-12-01T21:17:26.683Z,76.83
2017-12-01T21:19:54.184Z,62.20
2017-12-01T21:22:21.742Z,66.00
2017-12-01T21:24:49.234Z,51.17
2017-12-01T21:27:16.797Z,52.50
2017-12-01T21:29:44.322Z,50.60
2017-12-01T21:32:11.864Z,55.57
2017-12-01T21:34:39.358Z,79.23
2017-12-01T21:37:06.918Z,90.50
2017-12-01T21:39:34.444Z,84.87
2017-12-01T21:42:01.960Z,66.53
2017-12-01T21:44:29.450Z,60.20
2017-12-01T21:46:56.999Z,88.97
2017-12-01T21:49:24.487Z,62.07
2017-12-01T21:51:51.978Z,54.27
2017-12-01T21:54:19.499Z,51.37
2017-12-01T21:56:46.993Z,69.20
2017-12-01T21:59:14.503Z,56.33
2017-12-01T22:01:42.125Z,63.27
2017-12-01T22:04:09.683Z,54.30
2017-12-01T22:06:37.180Z,61.83
2017-12-01T22:09:04.687Z,66.03
2017-12-01T22:11:32.212Z,68.13
2017-12-01T22:13:59.690Z,67.53
2017-12-01T22:16:27.177Z,66.40
2017-12-01T22:18:54.704Z,83.90
2017-12-01T22:21:22.197Z,111.97
2017-12-01T22:23:49.754Z,71.87
2017-12-01T22:26:17.279Z,105.10
2017-12-01T22:28:44.766Z,66.00
2017-12-01T22:31:12.254Z,52.50
2017-12-01T22:33:39.800Z,84.17
2017-12-01T22:36:07.296Z,65.37
2017-12-01T22:38:34.788Z,50.40
2017-12-01T22:41:03.177Z,98.17
2017-12-01T22:43:30.680Z,93.73
2017-12-01T22:45:58.168Z,91.83
2017-12-01T22:48:25.704Z,85.80
2017-12-01T22:50:53.206Z,69.77
2017-12-01T22:53:20.714Z,66.87
2017-12-01T22:55:48.243Z,83.00
2017-12-01T22:58:15.746Z,73.83
2017-12-01T23:00:43.326Z,93.70
2017-12-01T23:03:10.885Z,104.33
2017-12-01T23:05:38.370Z,73.13
2017-12-01T23:08:05.895Z,72.00
2017-12-01T23:10:33.389Z,52.33
2017-12-01T23:13:00.891Z,87.73
2017-12-01T23:15:28.471Z,70.67
2017-12-01T23:17:56.003Z,67.83
2017-12-01T23:20:23.602Z,106.87
2017-12-01T23:22:51.094Z,90.00
2017-12-01T23:25:18.624Z,71.10
2017-12-01T23:27:46.115Z,68.33
2017-12-01T23:30:13.600Z,76.27
2017-12-01T23:32:41.236Z,66.20
2017-12-01T23:35:08.747Z,52.50
2017-12-01T23:37:36.238Z,41.97
2017-12-01T23:40:03.768Z,82.47
2017-12-01T23:42:31.258Z,49.90
2017-12-01T23:44:58.746Z,60.40
2017-12-01T23:47:26.278Z,57.40
2017-12-01T23:49:53.795Z,39.27
2017-12-01T23:52:21.293Z,76.47
2017-12-01T23:54:48.819Z,81.00
2017-12-01T23:57:16.312Z,70.10
2017-12-01T23:59:43.818Z,60.40
